Time;durP1;ratioP1;P1;durP2;ratioP2;P2;SDS_P1;SDS_P2;PMS_P1;PMS_P2;Temp;Humidity;BMP_temperature;BMP_pressure;BME280_temperature;BME280_humidity;BME280_pressure;Samples;Min_cycle;Max_cycle;Signal;HPM_P1;HPM_P2
2022/04/26 03:36:39;;;;;;;10.25;5.20;;;;;;;7.67;99.11;101746.50;5088713;28;20101;-59
2022/04/26 03:39:04;;;;;;;10.35;5.38;;;;;;;7.67;99.57;101756.16;5070774;28;20036;-58
2022/04/26 03:41:30;;;;;;;14.68;5.65;;;;;;;7.64;99.98;101737.78;5073713;28;20101;-58
2022/04/26 03:43:56;;;;;;;11.77;5.80;;;;;;;7.60;100.00;101744.00;5084761;28;20524;-58
2022/04/26 03:46:22;;;;;;;11.05;5.53;;;;;;;7.59;100.00;101743.13;5086256;28;20020;-58
2022/04/26 03:48:48;;;;;;;9.07;5.30;;;;;;;7.60;100.00;101751.91;5088071;28;20034;-58
2022/04/26 03:51:13;;;;;;;12.82;5.50;;;;;;;7.53;100.00;101749.38;5070542;28;20024;-58
2022/04/26 03:53:39;;;;;;;12.27;6.18;;;;;;;7.51;100.00;101755.56;5086667;28;20394;-57
2022/04/26 03:56:05;;;;;;;12.77;6.80;;;;;;;7.52;100.00;101754.69;5064451;28;20384;-58
2022/04/26 03:58:31;;;;;;;11.45;5.70;;;;;;;7.48;100.00;101752.97;5086850;28;20036;-58
2022/04/26 04:00:57;;;;;;;15.38;5.80;;;;;;;7.44;100.00;101748.66;5085287;28;20034;-58
2022/04/26 04:03:23;;;;;;;14.88;6.20;;;;;;;7.43;100.00;101757.44;5086936;28;20089;-58
2022/04/26 04:05:48;;;;;;;10.27;6.10;;;;;;;7.38;100.00;101754.91;5087372;28;20016;-58
2022/04/26 04:08:13;;;;;;;9.63;6.03;;;;;;;7.35;100.00;101753.19;5064830;28;20028;-57
2022/04/26 04:10:38;;;;;;;13.07;5.80;;;;;;;7.29;100.00;101752.41;5055598;28;20467;-58
2022/04/26 04:13:04;;;;;;;13.10;6.20;;;;;;;7.21;100.00;101750.78;5087947;28;20364;-59
2022/04/26 04:15:29;;;;;;;12.75;6.15;;;;;;;7.18;100.00;101753.44;5083153;28;20514;-58
2022/04/26 04:17:55;;;;;;;17.73;6.85;;;;;;;7.12;100.00;101761.44;5081489;28;20047;-58
2022/04/26 04:20:21;;;;;;;14.13;6.20;;;;;;;7.09;100.00;101758.88;5081712;28;20077;-58
2022/04/26 04:22:48;;;;;;;13.60;6.32;;;;;;;7.05;100.00;101768.59;5071855;28;20052;-58
2022/04/26 04:25:14;;;;;;;13.13;6.00;;;;;;;7.00;100.00;101767.78;5084828;28;20024;-59
2022/04/26 04:27:39;;;;;;;14.88;6.60;;;;;;;6.98;100.00;101763.44;5085154;28;20031;-58
2022/04/26 04:30:05;;;;;;;16.85;6.60;;;;;;;6.96;100.00;101759.97;5085268;28;20039;-58
2022/04/26 04:32:30;;;;;;;11.90;6.18;;;;;;;6.91;100.00;101770.56;5067190;28;20048;-59
2022/04/26 04:34:56;;;;;;;11.93;6.65;;;;;;;6.91;100.00;101774.97;5066374;28;20024;-58
2022/04/26 04:37:22;;;;;;;15.82;6.35;;;;;;;6.88;100.00;101789.06;5035141;28;20510;-57
2022/04/26 04:39:48;;;;;;;12.77;6.57;;;;;;;6.84;100.00;101779.44;5074704;28;20368;-56
2022/04/26 04:42:14;;;;;;;15.07;6.70;;;;;;;6.83;100.00;101788.22;5073274;28;20046;-59
2022/04/26 04:44:39;;;;;;;11.55;6.57;;;;;;;6.81;100.00;101792.66;5071497;28;20028;-59
2022/04/26 04:47:05;;;;;;;17.05;6.78;;;;;;;6.79;100.00;101795.31;5068517;28;20032;-59
2022/04/26 04:49:30;;;;;;;11.20;6.72;;;;;;;6.80;100.00;101804.91;5084176;28;20032;-60
2022/04/26 04:51:56;;;;;;;11.95;6.45;;;;;;;6.78;100.00;101812.00;5088005;28;20035;-58
2022/04/26 04:54:21;;;;;;;13.18;6.03;;;;;;;6.76;100.00;101812.91;5069779;28;20055;-58
2022/04/26 04:56:46;;;;;;;12.23;6.47;;;;;;;6.77;100.00;101817.28;5088862;28;20426;-58
2022/04/26 04:59:12;;;;;;;12.68;6.25;;;;;;;6.76;100.00;101819.03;5082558;28;20087;-58
2022/04/26 05:01:37;;;;;;;12.90;6.70;;;;;;;6.80;100.00;101827.75;5089482;28;20086;-58
2022/04/26 05:04:03;;;;;;;16.20;6.22;;;;;;;6.79;100.00;101826.91;5090579;28;20039;-58
2022/04/26 05:06:28;;;;;;;15.35;6.15;;;;;;;6.84;100.00;101827.72;5086926;28;20059;-58
2022/04/26 05:08:53;;;;;;;12.43;6.20;;;;;;;6.84;100.00;101826.81;5070953;28;20391;-59
2022/04/26 05:11:19;;;;;;;12.60;5.95;;;;;;;6.81;100.00;101832.13;5088953;28;20028;-59
2022/04/26 05:13:44;;;;;;;14.98;6.60;;;;;;;6.78;100.00;101834.78;5067497;28;20068;-59
2022/04/26 05:16:10;;;;;;;11.90;5.93;;;;;;;6.80;100.00;101843.56;5083387;28;20589;-59
2022/04/26 05:18:35;;;;;;;14.32;6.50;;;;;;;6.77;100.00;101840.97;5090741;28;20066;-59
2022/04/26 05:21:00;;;;;;;10.55;6.00;;;;;;;6.77;100.00;101848.88;5072898;28;20127;-58
2022/04/26 05:26:10;;;;;;;10.63;6.78;;;;;;;6.76;100.00;101855.88;5091448;28;20079;-59
2022/04/26 05:28:35;;;;;;;14.32;6.60;;;;;;;6.74;100.00;101847.16;5068128;28;20052;-59
2022/04/26 05:31:01;;;;;;;16.20;6.72;;;;;;;6.72;100.00;101855.03;5088973;28;20059;-58
2022/04/26 05:33:29;;;;;;;17.95;7.00;;;;;;;6.76;100.00;101858.50;5053566;28;20028;-58
2022/04/26 05:35:54;;;;;;;13.40;6.72;;;;;;;6.78;100.00;101858.50;5088321;28;20040;-58
2022/04/26 05:38:20;;;;;;;15.55;6.53;;;;;;;6.81;100.00;101866.38;5085220;28;20030;-58
2022/04/26 05:40:45;;;;;;;16.15;7.00;;;;;;;6.83;100.00;101867.19;5071437;28;20388;-57
2022/04/26 05:43:11;;;;;;;12.00;6.72;;;;;;;6.82;100.00;101862.84;5066850;28;20028;-57
2022/04/26 05:45:37;;;;;;;16.35;6.95;;;;;;;6.83;100.00;101864.56;5091334;28;20449;-58
2022/04/26 05:48:04;;;;;;;12.63;6.68;;;;;;;6.85;100.00;101870.69;5084778;28;20073;-58
2022/04/26 05:50:29;;;;;;;13.77;6.65;;;;;;;6.91;100.00;101867.13;5084678;28;20031;-58
2022/04/26 05:52:54;;;;;;;19.17;6.95;;;;;;;6.91;100.00;101870.63;5080992;28;20024;-58
2022/04/26 05:55:20;;;;;;;13.57;6.43;;;;;;;6.98;100.00;101864.41;5090133;28;20059;-57
2022/04/26 05:57:45;;;;;;;15.30;6.40;;;;;;;6.99;100.00;101867.88;5055363;28;20460;-59
2022/04/26 06:00:12;;;;;;;16.25;7.00;;;;;;;7.03;100.00;101873.09;5085472;28;20395;-58
2022/04/26 06:02:42;;;;;;;14.63;5.95;;;;;;;7.08;100.00;101865.13;5072029;28;20101;-59
2022/04/26 06:05:08;;;;;;;13.32;6.30;;;;;;;7.12;100.00;101868.59;5084890;28;20315;-58
2022/04/26 06:07:34;;;;;;;10.25;5.63;;;;;;;7.13;100.00;101857.16;5088412;28;20020;-60
2022/04/26 06:09:59;;;;;;;13.18;6.43;;;;;;;7.14;100.00;101864.19;5086073;28;20036;-59
2022/04/26 06:12:26;;;;;;;13.73;6.22;;;;;;;7.18;100.00;101869.38;5087587;28;20047;-58
2022/04/26 06:14:55;;;;;;;11.68;6.00;;;;;;;7.11;100.00;101867.72;5088733;28;20332;-58
2022/04/26 06:17:21;;;;;;;11.65;5.88;;;;;;;7.04;100.00;101872.19;5085908;28;20027;-58
2022/04/26 06:19:47;;;;;;;12.18;6.40;;;;;;;7.00;100.00;101880.16;5095374;28;20441;-58
2022/04/26 06:22:12;;;;;;;12.55;6.03;;;;;;;7.01;100.00;101872.25;5086780;28;20111;-58
2022/04/26 06:24:38;;;;;;;12.80;6.35;;;;;;;6.99;100.00;101881.91;5064513;28;20119;-58
2022/04/26 06:27:03;;;;;;;14.77;6.55;;;;;;;7.02;100.00;101881.88;5045254;28;20098;-58
2022/04/26 06:29:29;;;;;;;12.88;5.60;;;;;;;7.07;100.00;101887.06;5091108;28;20024;-57
2022/04/26 06:31:55;;;;;;;10.70;6.05;;;;;;;7.11;100.00;101880.00;5093048;28;20061;-59
2022/04/26 06:34:20;;;;;;;10.25;5.43;;;;;;;7.20;100.00;101888.66;5092965;28;20036;-58
2022/04/26 06:36:45;;;;;;;13.65;5.43;;;;;;;7.28;100.00;101883.28;5092701;28;20047;-59
2022/04/26 06:39:11;;;;;;;12.05;5.00;;;;;;;7.36;100.00;101885.81;5076084;28;20513;-58
2022/04/26 06:41:36;;;;;;;13.23;5.57;;;;;;;7.44;100.00;101893.59;5092926;28;20047;-59
2022/04/26 06:44:02;;;;;;;12.57;5.15;;;;;;;7.48;100.00;101888.28;5075148;28;20090;-58
2022/04/26 06:46:28;;;;;;;13.00;5.75;;;;;;;7.54;100.00;101893.47;5054848;28;20056;-58
2022/04/26 06:48:57;;;;;;;13.27;5.32;;;;;;;7.65;100.00;101893.28;5081486;28;20067;-58
2022/04/26 06:51:22;;;;;;;16.98;6.50;;;;;;;7.79;100.00;101897.47;5073645;28;20051;-55
2022/04/26 06:53:48;;;;;;;12.80;5.50;;;;;;;7.91;98.94;101904.31;5092621;28;20403;-56
2022/04/26 06:56:13;;;;;;;12.10;5.05;;;;;;;8.01;99.03;101909.38;5091778;28;20071;-56
2022/04/26 06:58:39;;;;;;;11.85;4.72;;;;;;;8.17;98.65;101909.13;5092722;28;20490;-56
2022/04/26 07:01:04;;;;;;;10.10;4.68;;;;;;;8.32;96.67;101921.19;5093103;28;20027;-58
2022/04/26 07:03:29;;;;;;;8.68;4.50;;;;;;;8.42;95.21;101914.84;5074373;28;20038;-57
2022/04/26 07:05:55;;;;;;;8.80;4.50;;;;;;;8.48;94.31;101927.97;5092214;28;20560;-57
2022/04/26 07:08:21;;;;;;;9.50;4.18;;;;;;;8.53;93.41;101920.81;5086166;28;20379;-58
2022/04/26 07:10:46;;;;;;;14.55;4.63;;;;;;;8.78;92.83;101924.75;5112217;28;20124;-57
2022/04/26 07:13:15;;;;;;;13.85;4.65;;;;;;;8.79;90.92;101931.78;5108039;28;20032;-56
2022/04/26 07:15:40;;;;;;;9.27;4.70;;;;;;;8.84;90.98;101933.41;5091784;28;20039;-57
2022/04/26 07:18:06;;;;;;;13.45;4.93;;;;;;;8.90;89.87;101932.44;5092218;28;20024;-57
2022/04/26 07:20:31;;;;;;;9.75;5.00;;;;;;;8.78;90.22;101933.53;5074165;28;20056;-58
2022/04/26 07:22:57;;;;;;;12.00;5.00;;;;;;;8.81;90.32;101936.13;5074317;28;20502;-56
2022/04/26 07:25:22;;;;;;;13.48;5.75;;;;;;;8.88;89.78;101936.88;5091799;28;20032;-56
2022/04/26 07:27:48;;;;;;;15.18;4.90;;;;;;;8.99;89.67;101937.53;5085101;28;20107;-57
2022/04/26 07:30:13;;;;;;;12.70;5.25;;;;;;;9.15;88.20;101931.91;5099383;28;20040;-57
2022/04/26 07:35:22;;;;;;;11.18;4.97;;;;;;;9.52;87.30;101934.59;5092393;28;20050;-58
2022/04/26 07:37:48;;;;;;;10.55;4.75;;;;;;;9.47;86.24;101933.84;5059824;28;20044;-59
2022/04/26 07:40:13;;;;;;;10.27;4.57;;;;;;;9.44;85.56;101936.56;5087177;28;20028;-57
2022/04/26 07:42:39;;;;;;;6.95;4.47;;;;;;;9.28;85.90;101940.47;5073651;28;20024;-58
2022/04/26 07:45:05;;;;;;;10.57;4.85;;;;;;;9.34;86.62;101948.25;5103260;28;20031;-57
2022/04/26 07:47:31;;;;;;;7.70;4.35;;;;;;;9.42;85.00;101938.38;5091628;28;20534;-58
2022/04/26 07:49:58;;;;;;;14.13;4.55;;;;;;;9.42;81.62;101942.78;5088001;28;20049;-58
2022/04/26 07:52:23;;;;;;;13.43;4.72;;;;;;;9.42;83.01;101948.09;5090323;28;20092;-57
2022/04/26 07:54:50;;;;;;;11.65;4.50;;;;;;;9.42;83.87;101948.94;5090256;28;20118;-58
2022/04/26 07:57:15;;;;;;;13.27;6.57;;;;;;;9.46;84.04;101942.72;5095177;28;20035;-58
2022/04/26 07:59:40;;;;;;;7.32;4.45;;;;;;;9.54;83.32;101946.94;5094951;28;20024;-58
2022/04/26 08:02:10;;;;;;;9.50;4.68;;;;;;;9.63;81.95;101952.91;5072697;28;20497;-58
2022/04/26 08:04:36;;;;;;;13.02;4.68;;;;;;;9.77;81.78;101952.56;5089014;28;20364;-58
2022/04/26 08:07:01;;;;;;;9.18;4.70;;;;;;;9.71;81.65;101955.34;5091432;28;20119;-58
2022/04/26 08:09:26;;;;;;;10.73;4.78;;;;;;;9.78;81.87;101956.06;5069297;28;20403;-58
2022/04/26 08:11:52;;;;;;;10.05;5.07;;;;;;;9.76;81.60;101961.41;5090256;28;20043;-58
2022/04/26 08:14:18;;;;;;;9.80;5.05;;;;;;;9.89;82.80;101959.34;5072902;28;20099;-57
2022/04/26 08:16:44;;;;;;;10.57;4.88;;;;;;;10.11;81.92;101956.16;5096764;28;20060;-57
2022/04/26 08:19:10;;;;;;;10.70;4.88;;;;;;;10.18;80.02;101965.72;5091365;28;20056;-59
2022/04/26 08:21:36;;;;;;;11.95;4.63;;;;;;;10.21;80.26;101965.63;5091229;28;20498;-58
2022/04/26 08:29:29;;;;;;;14.80;5.07;;;;;;;10.64;75.25;101967.19;5091908;28;20518;-58
2022/04/26 08:31:55;;;;;;;9.60;4.88;;;;;;;10.57;73.62;101973.53;5072659;28;20032;-58
2022/04/26 08:34:22;;;;;;;10.65;4.72;;;;;;;10.65;75.03;101963.63;5054537;28;20029;-57
2022/04/26 08:36:47;;;;;;;9.63;4.25;;;;;;;10.68;72.77;101980.31;5081832;28;20040;-59
2022/04/26 08:39:13;;;;;;;11.48;4.40;;;;;;;10.75;72.74;101979.25;5091347;28;20035;-58
2022/04/26 08:41:38;;;;;;;9.02;4.93;;;;;;;10.88;72.14;101982.44;5091147;28;20058;-59
2022/04/26 08:44:09;;;;;;;10.43;4.57;;;;;;;10.85;71.54;101975.44;5091051;28;20070;-59
2022/04/26 08:52:03;;;;;;;10.63;5.00;;;;;;;11.20;70.35;101981.53;5088662;28;20112;-57
2022/04/26 08:54:30;;;;;;;13.60;4.88;;;;;;;11.60;70.44;101990.09;5071409;28;20505;-59
2022/04/26 08:56:56;;;;;;;9.88;4.60;;;;;;;11.63;70.13;101985.53;5070897;28;20036;-57
2022/04/26 08:59:21;;;;;;;8.63;4.43;;;;;;;11.99;68.83;101995.06;5073111;28;20429;-57
2022/04/26 09:01:47;;;;;;;8.77;3.90;;;;;;;12.23;65.05;101993.41;5091059;28;20102;-58
2022/04/26 09:04:15;;;;;;;6.93;3.83;;;;;;;12.99;64.13;102004.06;5072914;28;20032;-58
2022/04/26 09:06:43;;;;;;;9.38;3.42;;;;;;;13.19;58.25;102002.47;5073009;28;20020;-58
2022/04/26 09:09:14;;;;;;;7.45;3.85;;;;;;;12.73;57.77;102003.22;5072622;28;20032;-58
2022/04/26 09:11:40;;;;;;;9.95;3.45;;;;;;;12.24;60.37;102008.41;5090850;28;20080;-57
2022/04/26 09:14:08;;;;;;;7.45;3.15;;;;;;;12.35;56.24;102009.84;5090638;28;20115;-59
2022/04/26 09:16:34;;;;;;;6.50;3.50;;;;;;;13.14;55.55;102007.97;5090944;28;20032;-57
2022/04/26 09:19:05;;;;;;;7.35;3.50;;;;;;;13.89;54.42;102011.38;5090644;28;20028;-58
2022/04/26 09:21:32;;;;;;;5.88;3.28;;;;;;;15.18;50.94;102017.47;5090659;28;20111;-58
2022/04/26 09:24:06;;;;;;;7.28;3.28;;;;;;;16.65;43.58;102005.06;5095032;28;20042;-57
2022/04/26 09:26:36;;;;;;;6.07;3.10;;;;;;;16.91;41.01;102006.41;5094357;28;20055;-59
2022/04/26 09:29:04;;;;;;;5.97;3.00;;;;;;;16.58;41.60;102007.19;5090228;28;20032;-58
2022/04/26 09:31:35;;;;;;;5.90;3.40;;;;;;;16.29;43.65;102011.34;5092094;28;20019;-59
2022/04/26 09:34:05;;;;;;;6.78;2.75;;;;;;;14.74;44.99;102018.50;5076977;28;20418;-59
2022/04/26 09:36:41;;;;;;;5.95;3.10;;;;;;;13.68;48.31;102019.28;5094210;28;20495;-58
2022/04/26 09:39:08;;;;;;;6.43;2.90;;;;;;;13.26;49.93;102025.25;5094128;28;20024;-58
2022/04/26 09:41:35;;;;;;;5.60;2.67;;;;;;;13.12;50.77;102031.09;5093371;28;20024;-58
2022/04/26 09:44:06;;;;;;;8.80;3.30;;;;;;;13.99;51.05;102027.81;5094836;28;20032;-58
2022/04/26 09:46:40;;;;;;;5.25;2.75;;;;;;;15.81;45.18;102029.69;5076213;28;20032;-58
2022/04/26 09:49:05;;;;;;;5.35;3.35;;;;;;;16.35;41.92;102027.09;5076104;28;20028;-58
2022/04/26 09:51:31;;;;;;;5.10;3.20;;;;;;;17.22;39.40;102028.00;5075740;28;20042;-58
2022/04/26 09:53:57;;;;;;;5.93;3.00;;;;;;;18.21;39.13;102023.38;5093118;28;20071;-58
2022/04/26 09:56:26;;;;;;;5.13;2.95;;;;;;;18.07;38.18;102029.53;5093414;28;20266;-58
2022/04/26 09:58:55;;;;;;;5.72;3.20;;;;;;;17.39;38.46;102027.06;5093810;28;20024;-58
2022/04/26 10:01:20;;;;;;;6.30;3.45;;;;;;;17.00;39.74;102032.66;5076058;28;20074;-59
2022/04/26 10:03:51;;;;;;;7.10;3.50;;;;;;;17.19;41.99;102035.22;5093078;28;20103;-58
2022/04/26 10:06:18;;;;;;;9.02;3.80;;;;;;;16.95;43.57;102032.06;5093186;28;20024;-58
2022/04/26 10:08:45;;;;;;;8.55;3.67;;;;;;;15.66;45.92;102037.47;5059059;28;20502;-58
2022/04/26 10:11:11;;;;;;;9.00;3.42;;;;;;;14.74;48.18;102030.06;5093051;28;20032;-58
2022/04/26 10:13:39;;;;;;;9.85;3.30;;;;;;;14.28;48.98;102034.63;5057343;28;20028;-57
2022/04/26 10:16:05;;;;;;;4.82;3.10;;;;;;;13.88;49.48;102037.09;5097777;28;20039;-58
2022/04/26 10:18:38;;;;;;;8.25;3.80;;;;;;;14.55;49.40;102039.72;5097514;28;20111;-58
2022/04/26 10:21:04;;;;;;;5.97;3.50;;;;;;;15.78;45.10;102040.50;5093343;28;20024;-58
2022/04/26 10:24:03;;;;;;;7.82;3.20;;;;;;;16.92;43.07;102034.91;5093149;28;20058;-58
2022/04/26 10:26:33;;;;;;;5.90;2.78;;;;;;;17.82;38.09;102036.25;5081902;28;20058;-58
2022/04/26 10:29:08;;;;;;;9.40;3.67;;;;;;;18.30;40.10;102043.41;5075343;28;20024;-58
2022/04/26 10:31:39;;;;;;;7.85;3.50;;;;;;;16.78;42.82;102042.75;5092451;28;20032;-59
2022/04/26 10:34:26;;;;;;;6.57;3.38;;;;;;;16.59;42.33;102035.66;5092059;28;20510;-57
2022/04/26 10:37:08;;;;;;;8.13;3.20;;;;;;;15.38;44.76;102046.78;5092430;28;20118;-57
2022/04/26 10:39:38;;;;;;;7.72;3.15;;;;;;;14.46;47.74;102048.97;5074681;28;20044;-58
2022/04/26 10:42:28;;;;;;;6.40;3.50;;;;;;;14.22;49.71;102045.53;5092943;28;20388;-55
2022/04/26 10:44:59;;;;;;;7.20;3.28;;;;;;;14.44;50.31;102042.88;5092847;28;20028;-59
2022/04/26 10:47:26;;;;;;;6.05;3.72;;;;;;;15.60;46.81;102037.78;5089456;28;20378;-57
2022/04/26 10:49:53;;;;;;;5.90;3.10;;;;;;;16.94;43.21;102035.66;5072034;28;20407;-57
2022/04/26 10:52:19;;;;;;;6.00;3.00;;;;;;;17.27;39.45;102042.84;5091561;28;20024;-59
2022/04/26 10:55:03;;;;;;;7.03;3.88;;;;;;;17.18;39.16;102041.53;5074443;28;20105;-58
2022/04/26 10:57:31;;;;;;;6.53;3.38;;;;;;;18.11;37.48;102047.16;5090925;28;20432;-57
2022/04/26 11:00:07;;;;;;;5.78;3.13;;;;;;;18.60;40.77;102050.63;5091555;28;20024;-58
2022/04/26 11:02:47;;;;;;;7.45;3.40;;;;;;;19.11;40.91;102050.25;5069611;28;20035;-58
2022/04/26 11:05:23;;;;;;;8.77;4.07;;;;;;;18.57;39.24;102054.34;5082068;28;20522;-58
2022/04/26 11:07:49;;;;;;;8.75;3.63;;;;;;;16.85;41.76;102054.84;5085052;28;20031;-58
2022/04/26 11:10:18;;;;;;;6.28;3.70;;;;;;;16.29;44.30;102048.78;5080118;28;20028;-60
2022/04/26 11:12:44;;;;;;;7.78;3.53;;;;;;;15.97;44.65;102062.78;5064930;28;20562;-58
2022/04/26 11:15:11;;;;;;;10.60;3.60;;;;;;;15.70;47.44;102065.78;5088238;28;20115;-58
2022/04/26 11:17:37;;;;;;;8.02;3.50;;;;;;;15.10;49.80;102071.16;5088287;28;20039;-58
2022/04/26 11:20:14;;;;;;;9.38;3.95;;;;;;;14.34;51.15;102066.34;5092959;28;20024;-59
2022/04/26 11:22:49;;;;;;;9.05;3.90;;;;;;;15.15;50.39;102069.16;5071324;28;20028;-57
2022/04/26 11:28:21;;;;;;;7.30;3.80;;;;;;;15.07;48.74;102076.66;5090424;28;20043;-57
2022/04/26 11:30:55;;;;;;;10.32;3.67;;;;;;;14.94;50.10;102079.00;5093241;28;20024;-57
2022/04/26 11:33:24;;;;;;;11.38;3.88;;;;;;;15.42;49.26;102078.66;5090897;28;20462;-58
2022/04/26 11:35:52;;;;;;;7.25;3.33;;;;;;;16.17;46.34;102076.97;5073718;28;20020;-57
2022/04/26 11:38:18;;;;;;;6.90;3.20;;;;;;;16.44;45.05;102081.91;5091868;28;20040;-57
2022/04/26 11:40:52;;;;;;;4.80;3.03;;;;;;;17.15;43.62;102063.13;5092297;28;20036;-58
2022/04/26 11:43:20;;;;;;;6.18;3.45;;;;;;;17.58;41.62;102078.66;5094628;28;20023;-57
2022/04/26 11:45:47;;;;;;;6.35;3.15;;;;;;;17.24;41.72;102079.63;5102251;28;20030;-57
2022/04/26 11:48:15;;;;;;;7.10;2.90;;;;;;;17.67;39.10;102075.50;5091217;28;20032;-58
2022/04/26 11:50:42;;;;;;;5.55;2.75;;;;;;;17.84;36.69;102085.25;5091756;28;20027;-57
2022/04/26 11:53:10;;;;;;;4.53;2.70;;;;;;;17.64;35.95;102081.00;5092262;28;20030;-58
2022/04/26 11:55:41;;;;;;;5.00;2.50;;;;;;;18.07;35.04;102087.63;5091085;28;20119;-57
2022/04/26 11:58:09;;;;;;;4.93;2.47;;;;;;;18.41;33.19;102088.38;5091764;28;20065;-57
2022/04/26 12:00:36;;;;;;;8.85;2.53;;;;;;;18.08;34.21;102100.09;5091824;28;20024;-57
2022/04/26 12:03:05;;;;;;;3.80;2.40;;;;;;;17.89;35.02;102101.09;5074222;28;20027;-57
2022/04/26 12:05:37;;;;;;;6.20;2.65;;;;;;;18.07;37.04;102107.28;5073596;28;20035;-56
2022/04/26 12:08:03;;;;;;;5.55;2.80;;;;;;;17.78;37.01;102104.34;5091791;28;20027;-59
2022/04/26 12:10:32;;;;;;;4.35;2.40;;;;;;;17.75;35.68;102093.81;5073285;28;20032;-58
2022/04/26 12:13:01;;;;;;;4.50;2.30;;;;;;;17.71;35.99;102104.78;5074192;28;20046;-57
2022/04/26 12:15:35;;;;;;;4.13;2.55;;;;;;;18.06;35.39;102102.00;5091367;28;20028;-58
2022/04/26 12:18:08;;;;;;;4.43;2.40;;;;;;;18.45;33.94;102106.91;5091510;28;20020;-58
2022/04/26 12:20:36;;;;;;;4.57;2.33;;;;;;;18.20;34.70;102101.19;5091695;28;20081;-57
2022/04/26 12:23:05;;;;;;;4.88;2.60;;;;;;;18.20;34.86;102102.06;5092637;28;20019;-57
2022/04/26 12:25:33;;;;;;;5.45;2.60;;;;;;;17.80;35.37;102106.94;5087457;28;20028;-57
2022/04/26 12:28:07;;;;;;;4.38;2.50;;;;;;;17.71;35.43;102102.09;5090225;28;20081;-57
2022/04/26 12:30:34;;;;;;;2.67;2.25;;;;;;;17.72;34.73;102112.72;5091384;28;20036;-58
2022/04/26 12:33:00;;;;;;;4.45;2.28;;;;;;;17.75;34.13;102106.34;5089243;28;20070;-57
2022/04/26 12:35:25;;;;;;;6.10;2.70;;;;;;;18.49;34.61;102113.81;5084205;28;20420;-55
2022/04/26 12:38:08;;;;;;;5.75;2.55;;;;;;;18.77;35.89;102114.88;5080576;28;20078;-57
2022/04/26 12:40:34;;;;;;;8.68;2.88;;;;;;;18.11;35.30;102111.50;5072432;28;20550;-57
2022/04/26 12:43:00;;;;;;;6.80;3.05;;;;;;;17.97;36.67;102114.94;5091240;28;20505;-58
2022/04/26 12:45:25;;;;;;;9.50;2.90;;;;;;;18.43;36.23;102116.84;5092374;28;20024;-57
2022/04/26 12:50:54;;;;;;;6.30;2.53;;;;;;;18.37;35.05;102127.91;5091159;28;20104;-57
2022/04/26 12:53:32;;;;;;;4.07;2.30;;;;;;;17.96;35.13;102123.09;5091260;28;20503;-57
2022/04/26 12:56:09;;;;;;;5.95;2.72;;;;;;;17.48;37.62;102118.47;5085745;28;20530;-57
2022/04/26 12:58:37;;;;;;;7.20;2.83;;;;;;;17.18;38.81;102123.66;5077592;28;20074;-58
2022/04/26 13:01:04;;;;;;;5.88;2.47;;;;;;;17.12;39.00;102122.16;5095114;28;20051;-56
2022/04/26 13:03:30;;;;;;;5.25;2.28;;;;;;;16.76;39.28;102123.06;5073647;28;20029;-57
2022/04/26 13:06:14;;;;;;;5.15;2.20;;;;;;;17.23;37.79;102126.94;5091362;28;20137;-58
2022/04/26 13:08:42;;;;;;;3.47;2.22;;;;;;;17.62;38.23;102124.91;5087690;28;20028;-56
2022/04/26 13:11:08;;;;;;;4.47;2.42;;;;;;;17.16;38.89;102129.09;5086030;28;20012;-57
2022/04/26 13:13:36;;;;;;;6.15;2.90;;;;;;;17.61;39.00;102132.09;5076906;28;20020;-59
2022/04/26 13:16:02;;;;;;;6.18;2.60;;;;;;;17.86;38.13;102133.41;5085747;28;20124;-56
2022/04/26 13:18:31;;;;;;;6.50;2.60;;;;;;;17.63;37.48;102146.22;5075615;28;20077;-57
2022/04/26 13:20:57;;;;;;;4.45;2.80;;;;;;;17.30;38.29;102139.06;5094740;28;20023;-57
2022/04/26 13:23:24;;;;;;;7.35;2.83;;;;;;;17.29;39.98;102137.34;5094567;28;20036;-58
2022/04/26 13:25:50;;;;;;;6.10;2.90;;;;;;;16.83;38.55;102132.53;5093577;28;20036;-58
2022/04/26 13:28:15;;;;;;;6.43;3.08;;;;;;;16.74;39.55;102133.00;5085032;28;20118;-58
2022/04/26 13:30:41;;;;;;;5.53;3.03;;;;;;;16.50;39.18;102135.06;5094490;28;20479;-55
2022/04/26 13:33:07;;;;;;;6.45;2.90;;;;;;;16.82;40.40;102132.59;5094082;28;20032;-56
2022/04/26 13:35:33;;;;;;;7.45;3.05;;;;;;;17.46;39.62;102125.72;5094459;28;20060;-55
2022/04/26 13:37:59;;;;;;;3.70;2.70;;;;;;;17.69;39.98;102124.47;5094490;28;20056;-57
2022/04/26 13:40:25;;;;;;;5.85;2.78;;;;;;;17.39;38.58;102127.00;5094443;28;20081;-58
2022/04/26 13:42:51;;;;;;;5.22;2.50;;;;;;;16.97;38.10;102133.63;5088986;28;20441;-57
2022/04/26 13:45:17;;;;;;;5.80;2.58;;;;;;;16.88;38.65;102137.66;5060287;28;20544;-55
2022/04/26 13:47:43;;;;;;;4.88;2.70;;;;;;;16.57;39.46;102124.94;5093827;28;20028;-56
2022/04/26 13:50:09;;;;;;;6.45;3.60;;;;;;;16.94;38.86;102132.00;5095257;28;20027;-58
2022/04/26 13:52:35;;;;;;;5.63;2.78;;;;;;;16.97;38.95;102133.63;5077159;28;20062;-55
2022/04/26 13:55:01;;;;;;;4.88;2.53;;;;;;;16.88;37.22;102133.16;5091320;28;20486;-57
2022/04/26 13:57:26;;;;;;;5.32;2.72;;;;;;;16.82;38.69;102127.25;5092812;28;20039;-54
2022/04/26 13:59:52;;;;;;;6.18;2.70;;;;;;;17.37;38.80;102120.88;5101189;28;20032;-57
2022/04/26 14:02:19;;;;;;;7.20;2.88;;;;;;;16.77;40.70;102131.97;5089850;28;20448;-55
2022/04/26 14:04:44;;;;;;;6.03;3.22;;;;;;;16.59;40.94;102129.25;5075303;28;20122;-56
2022/04/26 14:07:09;;;;;;;5.75;2.88;;;;;;;17.12;41.21;102115.94;5092915;28;20112;-57
2022/04/26 14:09:35;;;;;;;6.22;3.72;;;;;;;17.78;38.82;102127.63;5093652;28;20118;-57
2022/04/26 14:12:01;;;;;;;10.63;3.10;;;;;;;16.91;40.00;102126.81;5112715;28;20068;-55
2022/04/26 14:22:41;;;;;;;9.93;2.70;;;;;;;17.01;39.01;102132.56;5074087;28;20043;-55
2022/04/26 14:25:08;;;;;;;5.22;2.40;;;;;;;17.56;37.15;102138.63;5085645;28;20096;-57
2022/04/26 14:27:35;;;;;;;3.95;2.53;;;;;;;16.88;38.72;102137.66;5058150;28;20024;-57
2022/04/26 14:30:03;;;;;;;5.57;2.85;;;;;;;16.45;40.94;102137.97;5093604;28;20387;-56
2022/04/26 14:32:28;;;;;;;3.88;2.55;;;;;;;15.67;41.82;102140.69;5084576;28;20034;-56
2022/04/26 14:34:54;;;;;;;4.40;2.67;;;;;;;15.67;43.25;102137.16;5090717;28;20118;-57
2022/04/26 14:37:19;;;;;;;5.90;3.00;;;;;;;15.67;44.86;102129.16;5098343;28;20060;-57
2022/04/26 14:39:45;;;;;;;4.75;3.00;;;;;;;15.89;43.21;102131.72;5100386;28;20080;-56
2022/04/26 14:42:11;;;;;;;6.00;2.92;;;;;;;15.91;42.42;102140.53;5095250;28;20119;-56
2022/04/26 14:44:37;;;;;;;4.07;2.80;;;;;;;16.18;42.19;102132.16;5104747;28;20036;-57
2022/04/26 14:47:03;;;;;;;7.10;3.08;;;;;;;16.36;41.91;102135.75;5102777;28;20027;-57
2022/04/26 14:49:30;;;;;;;6.80;3.00;;;;;;;16.13;40.90;102142.19;5081934;28;20035;-56
2022/04/26 14:51:55;;;;;;;5.60;3.10;;;;;;;15.14;42.57;102136.81;5113401;28;20544;-56
2022/04/26 14:54:22;;;;;;;5.13;2.90;;;;;;;15.60;42.41;102135.69;5110956;28;20035;-54
2022/04/26 14:56:48;;;;;;;5.35;2.90;;;;;;;16.07;42.89;102138.00;5092759;28;20028;-58
2022/04/26 14:59:15;;;;;;;7.60;3.10;;;;;;;16.31;43.05;102138.63;5094560;28;20089;-57
2022/04/26 15:01:45;;;;;;;6.50;3.00;;;;;;;16.38;42.67;102148.09;5096151;28;20062;-56
2022/04/26 15:04:10;;;;;;;6.50;3.00;;;;;;;16.12;43.58;102148.47;5100408;28;20470;-56
2022/04/26 15:06:36;;;;;;;7.45;3.03;;;;;;;15.13;44.78;102137.75;5074370;28;20080;-56
2022/04/26 15:11:47;;;;;;;5.68;2.72;;;;;;;14.67;44.93;102137.03;5092844;28;20042;-54
2022/04/26 15:16:56;;;;;;;6.10;3.10;;;;;;;14.83;45.68;102146.09;5110568;28;20061;-55
2022/04/26 15:19:22;;;;;;;5.07;2.88;;;;;;;14.66;46.29;102130.81;5092170;28;20020;-57
2022/04/26 15:21:47;;;;;;;6.28;3.20;;;;;;;15.03;46.04;102142.59;5092135;28;20024;-55
2022/04/26 15:24:12;;;;;;;6.70;2.90;;;;;;;15.37;44.58;102140.25;5092306;28;20447;-55
2022/04/26 15:26:38;;;;;;;5.82;2.85;;;;;;;15.72;43.89;102143.16;5090329;28;20519;-56
2022/04/26 15:29:05;;;;;;;4.60;2.78;;;;;;;16.08;43.47;102137.06;5077293;28;20035;-56
2022/04/26 15:31:31;;;;;;;5.03;2.90;;;;;;;15.48;43.44;102134.47;5102952;28;20441;-56
2022/04/26 15:33:57;;;;;;;8.90;3.10;;;;;;;14.90;44.47;102142.25;5092812;28;20394;-56